createdAt,value
2022-08-07T00:00:07.399Z,66.34
2022-08-07T00:02:41.084Z,66.42
2022-08-07T00:05:10.789Z,65.84
2022-08-07T00:07:40.589Z,66.36
2022-08-07T00:10:26.500Z,66.82
2022-08-07T00:13:00.519Z,67.68
2022-08-07T00:15:36.017Z,67.23
2022-08-07T00:18:05.375Z,66.90
2022-08-07T00:20:34.256Z,67.05
2022-08-07T00:23:02.609Z,67.72
2022-08-07T00:25:37.567Z,68.08
2022-08-07T00:28:07.941Z,67.41
2022-08-07T00:30:37.309Z,67.51
2022-08-07T00:33:05.036Z,68.13
2022-08-07T00:35:36.562Z,67.84
2022-08-07T00:38:04.073Z,67.81
2022-08-07T00:40:39.859Z,68.49
2022-08-07T00:43:59.372Z,68.84
2022-08-07T00:46:00.381Z,69.03
2022-08-07T00:48:31.897Z,68.64
2022-08-07T00:51:00.185Z,68.64
2022-08-07T00:53:26.852Z,68.32
2022-08-07T00:56:07.514Z,68.94
2022-08-07T00:58:46.987Z,68.67
2022-08-07T01:01:17.675Z,68.88
2022-08-07T01:03:55.573Z,68.88
2022-08-07T01:06:25.261Z,69.52
2022-08-07T01:08:53.311Z,70.03
2022-08-07T01:12:23.797Z,69.84
2022-08-07T01:14:09.069Z,70.25
2022-08-07T01:16:36.840Z,70.46
2022-08-07T01:19:10.825Z,70.86
2022-08-07T01:21:47.189Z,70.99
2022-08-07T01:24:14.146Z,70.67
2022-08-07T01:26:51.543Z,70.34
2022-08-07T01:29:19.715Z,71.13
2022-08-07T01:31:48.228Z,71.79
2022-08-07T01:34:15.747Z,71.91
2022-08-07T01:36:44.010Z,72.20
2022-08-07T01:39:11.917Z,72.68
2022-08-07T01:41:55.021Z,73.73
2022-08-07T01:44:27.425Z,73.57
2022-08-07T01:46:54.584Z,73.58
2022-08-07T01:49:21.504Z,73.65
2022-08-07T01:52:02.525Z,74.13
2022-08-07T01:54:36.854Z,74.01
2022-08-07T01:57:24.204Z,73.11
2022-08-07T02:00:13.406Z,73.95
2022-08-07T02:03:19.248Z,73.88
2022-08-07T02:05:48.559Z,74.43
2022-08-07T02:08:28.024Z,74.65
2022-08-07T02:10:59.395Z,74.30
2022-08-07T02:13:58.043Z,74.63
2022-08-07T02:16:19.682Z,74.38
2022-08-07T02:18:49.382Z,75.36
2022-08-07T02:21:19.341Z,75.55
2022-08-07T02:23:46.450Z,75.10
2022-08-07T02:26:32.841Z,74.72
2022-08-07T02:29:02.361Z,74.59
2022-08-07T02:31:30.363Z,75.41
2022-08-07T02:34:11.307Z,75.47
2022-08-07T02:36:45.243Z,75.45
2022-08-07T02:39:17.293Z,75.09
2022-08-07T02:42:02.555Z,75.22
2022-08-07T02:44:34.867Z,75.97
2022-08-07T02:47:05.095Z,75.77
2022-08-07T02:49:57.644Z,76.91
2022-08-07T02:52:31.022Z,76.56
2022-08-07T02:55:03.729Z,76.36
2022-08-07T02:57:34.240Z,75.94
2022-08-07T03:00:10.294Z,75.99
2022-08-07T03:02:51.977Z,75.64
2022-08-07T03:05:23.255Z,76.49
2022-08-07T03:08:07.067Z,76.20
2022-08-07T03:10:40.570Z,77.51
2022-08-07T03:13:08.689Z,77.58
2022-08-07T03:15:47.760Z,77.64
2022-08-07T03:18:22.690Z,77.85
2022-08-07T03:21:01.748Z,78.91
2022-08-07T03:23:33.895Z,79.59
2022-08-07T03:26:23.449Z,78.14
2022-08-07T03:28:51.546Z,77.53
2022-08-07T03:31:23.679Z,78.32
2022-08-07T03:33:56.377Z,78.49
2022-08-07T03:36:25.898Z,78.48
2022-08-07T03:38:57.514Z,78.09
2022-08-07T03:41:42.371Z,78.35
2022-08-07T03:44:12.501Z,78.20
2022-08-07T03:47:13.187Z,79.10
2022-08-07T03:49:30.570Z,80.06
2022-08-07T03:52:01.435Z,79.96
2022-08-07T03:54:36.412Z,80.46
2022-08-07T03:58:33.841Z,80.69
2022-08-07T04:00:04.151Z,80.45
2022-08-07T04:02:31.512Z,81.60
2022-08-07T04:04:58.678Z,82.07
2022-08-07T04:07:25.730Z,81.79
2022-08-07T04:10:03.718Z,81.88
2022-08-07T04:12:35.138Z,81.81
2022-08-07T04:15:04.882Z,82.01
2022-08-07T04:18:31.056Z,82.27
2022-08-07T04:20:19.654Z,82.22
2022-08-07T04:22:53.403Z,81.76
2022-08-07T04:25:22.672Z,81.59
2022-08-07T04:27:59.341Z,81.58
2022-08-07T04:30:39.233Z,81.53
2022-08-07T04:33:13.903Z,81.78
2022-08-07T04:35:50.620Z,81.90
2022-08-07T04:38:20.007Z,81.58
2022-08-07T04:40:52.089Z,81.11
2022-08-07T04:44:10.306Z,81.14
2022-08-07T04:46:29.422Z,80.51
2022-08-07T04:49:17.962Z,80.48
2022-08-07T04:51:53.741Z,80.32
2022-08-07T04:54:42.084Z,80.14
2022-08-07T04:58:24.120Z,79.17
2022-08-07T05:00:32.741Z,80.23
2022-08-07T05:03:59.758Z,79.33
2022-08-07T05:06:19.204Z,77.59
2022-08-07T05:09:02.831Z,77.11
2022-08-07T05:11:58.094Z,76.05
2022-08-07T05:14:55.526Z,76.87
2022-08-07T05:17:52.018Z,76.53
2022-08-07T05:20:17.223Z,75.71
2022-08-07T05:22:46.925Z,75.19
2022-08-07T05:25:26.235Z,74.85
2022-08-07T05:28:20.287Z,74.25
2022-08-07T05:30:52.557Z,73.87
2022-08-07T05:33:21.135Z,73.13
2022-08-07T05:35:51.593Z,73.09
2022-08-07T05:39:00.462Z,73.28
2022-08-07T05:41:14.270Z,73.25
2022-08-07T05:44:07.813Z,72.94
2022-08-07T05:46:37.735Z,72.74
2022-08-07T05:49:12.115Z,72.40
2022-08-07T05:51:42.286Z,72.12
2022-08-07T05:54:19.590Z,72.20
2022-08-07T05:56:57.230Z,71.99
2022-08-07T05:59:26.255Z,71.31
2022-08-07T06:01:56.021Z,71.22
2022-08-07T06:04:29.811Z,71.27
2022-08-07T06:07:03.966Z,70.50
2022-08-07T06:10:04.068Z,70.25
2022-08-07T06:12:20.902Z,69.54
2022-08-07T06:14:49.474Z,69.74
2022-08-07T06:17:19.210Z,69.13
2022-08-07T06:20:03.648Z,69.05
2022-08-07T06:22:38.818Z,68.55
2022-08-07T06:25:10.218Z,68.27
2022-08-07T06:27:59.833Z,68.15
2022-08-07T06:30:35.431Z,67.08
2022-08-07T06:33:05.183Z,66.52
2022-08-07T06:35:45.534Z,65.73
2022-08-07T06:38:20.436Z,65.80
2022-08-07T06:40:51.333Z,65.71
2022-08-07T06:43:22.664Z,65.06
2022-08-07T06:45:50.588Z,64.41
2022-08-07T06:48:25.297Z,64.13
2022-08-07T06:50:54.933Z,63.97
2022-08-07T06:55:28.350Z,63.15
2022-08-07T06:56:15.490Z,62.36
2022-08-07T07:00:13.246Z,61.38
2022-08-07T07:01:33.161Z,61.67
2022-08-07T07:04:28.515Z,62.20
2022-08-07T07:07:01.186Z,61.36
2022-08-07T07:09:31.074Z,60.82
2022-08-07T07:12:07.823Z,60.19
2022-08-07T07:14:53.269Z,59.42
2022-08-07T07:17:52.787Z,58.48
2022-08-07T07:20:27.604Z,57.59
2022-08-07T07:24:09.336Z,57.16
2022-08-07T07:26:35.672Z,56.79
2022-08-07T07:28:48.237Z,55.57
2022-08-07T07:31:39.966Z,54.83
2022-08-07T07:34:17.464Z,55.52
2022-08-07T07:36:47.787Z,54.86
2022-08-07T07:39:22.622Z,54.75
2022-08-07T07:42:13.693Z,54.56
2022-08-07T07:44:41.979Z,54.34
2022-08-07T07:47:15.881Z,53.34
2022-08-07T07:50:34.011Z,53.02
2022-08-07T07:52:41.060Z,52.57
2022-08-07T07:55:11.021Z,52.47
2022-08-07T07:57:51.862Z,52.28
2022-08-07T08:00:29.521Z,51.91
2022-08-07T08:03:06.827Z,51.00
2022-08-07T08:05:50.486Z,50.27
2022-08-07T08:08:35.160Z,47.60
2022-08-07T08:11:09.229Z,47.11
2022-08-07T08:13:53.970Z,45.92
2022-08-07T08:16:29.991Z,45.12
2022-08-07T08:18:58.338Z,44.12
2022-08-07T08:21:55.849Z,44.41
2022-08-07T08:25:04.503Z,43.65
2022-08-07T08:27:40.401Z,43.23
2022-08-07T08:30:14.171Z,43.26
2022-08-07T08:32:49.161Z,43.74
2022-08-07T08:35:22.062Z,42.72
2022-08-07T08:38:01.012Z,41.88
2022-08-07T08:40:38.000Z,41.55
2022-08-07T08:43:18.417Z,43.67
2022-08-07T08:45:59.399Z,41.25
2022-08-07T08:48:36.395Z,41.24
2022-08-07T08:51:49.409Z,40.64
2022-08-07T08:54:12.262Z,39.82
2022-08-07T08:56:47.274Z,39.63
2022-08-07T08:59:57.208Z,40.17
2022-08-07T09:02:40.323Z,40.05
2022-08-07T09:05:14.690Z,39.10
2022-08-07T09:07:57.651Z,37.98
2022-08-07T09:10:27.502Z,38.42
2022-08-07T09:13:09.504Z,38.94
2022-08-07T09:16:23.336Z,37.34
2022-08-07T09:19:03.332Z,37.80
2022-08-07T09:22:09.649Z,38.65
2022-08-07T09:25:14.602Z,38.19
2022-08-07T09:28:05.205Z,38.39
2022-08-07T09:30:44.192Z,38.15
2022-08-07T09:33:16.772Z,37.33
2022-08-07T09:36:18.753Z,36.26
2022-08-07T09:39:18.246Z,36.48
2022-08-07T09:42:23.215Z,35.87
2022-08-07T09:47:24.545Z,35.32
2022-08-07T09:48:12.187Z,34.92
2022-08-07T09:52:09.661Z,36.02
2022-08-07T09:54:16.239Z,34.69
2022-08-07T09:56:42.981Z,35.76
2022-08-07T10:00:00.583Z,37.20
2022-08-07T10:03:07.875Z,36.18
2022-08-07T10:05:59.662Z,34.57
2022-08-07T10:08:55.606Z,35.58
2022-08-07T10:12:02.474Z,33.93
2022-08-07T10:14:47.462Z,34.29
2022-08-07T10:18:00.844Z,34.32
2022-08-07T10:22:12.664Z,34.33
2022-08-07T10:24:38.102Z,35.06
2022-08-07T10:27:20.440Z,34.48
2022-08-07T10:30:12.461Z,33.99
2022-08-07T10:33:08.304Z,34.91
2022-08-07T10:36:11.377Z,33.99
2022-08-07T10:38:53.136Z,32.83
2022-08-07T10:41:51.470Z,34.50
2022-08-07T10:44:37.592Z,35.48
2022-08-07T10:47:51.417Z,34.24
2022-08-07T10:50:31.201Z,35.10
2022-08-07T10:53:21.246Z,34.34
2022-08-07T10:56:02.283Z,34.51
2022-08-07T10:58:36.706Z,33.87
2022-08-07T11:01:51.379Z,33.37
2022-08-07T11:04:46.199Z,34.18
2022-08-07T11:07:59.564Z,33.15
2022-08-07T11:10:27.438Z,33.67
2022-08-07T11:13:03.947Z,33.03
2022-08-07T11:15:35.922Z,32.10
2022-08-07T11:18:17.806Z,33.42
2022-08-07T11:21:06.506Z,32.80
2022-08-07T11:23:39.730Z,32.10
2022-08-07T11:26:32.865Z,31.44
2022-08-07T11:29:12.866Z,31.64
2022-08-07T11:32:01.493Z,31.80
2022-08-07T11:34:42.416Z,31.71
2022-08-07T11:37:38.693Z,32.83
2022-08-07T11:40:27.583Z,32.20
2022-08-07T11:43:01.734Z,32.02
2022-08-07T11:45:49.890Z,31.91
2022-08-07T11:48:58.780Z,31.89
2022-08-07T11:51:58.043Z,31.72
2022-08-07T11:54:54.996Z,32.05
2022-08-07T11:57:59.886Z,33.59
2022-08-07T12:00:31.356Z,31.44
2022-08-07T12:03:08.065Z,32.35
2022-08-07T12:06:38.981Z,32.57
2022-08-07T12:09:24.703Z,30.69
2022-08-07T12:12:09.373Z,31.47
2022-08-07T12:15:01.401Z,30.17
2022-08-07T12:17:37.418Z,30.60
2022-08-07T12:20:30.948Z,31.22
2022-08-07T12:23:37.287Z,31.76
2022-08-07T12:26:23.495Z,31.12
2022-08-07T12:29:11.731Z,31.17
2022-08-07T12:31:53.237Z,30.78
2022-08-07T12:34:36.050Z,31.06
2022-08-07T12:37:08.629Z,30.97
2022-08-07T12:39:51.376Z,33.25
2022-08-07T12:42:27.776Z,31.97
2022-08-07T12:44:57.712Z,30.55
2022-08-07T12:47:49.296Z,30.42
2022-08-07T12:50:40.296Z,29.96
2022-08-07T12:54:03.189Z,30.55
2022-08-07T12:56:36.058Z,30.04
2022-08-07T12:59:08.390Z,29.93
2022-08-07T13:01:47.435Z,30.61
2022-08-07T13:04:32.616Z,30.79
2022-08-07T13:08:13.559Z,31.71
2022-08-07T13:10:52.930Z,31.41
2022-08-07T13:13:48.017Z,31.12
2022-08-07T13:16:17.411Z,31.24
2022-08-07T13:18:53.570Z,30.13
2022-08-07T13:21:57.724Z,30.35
2022-08-07T13:24:52.268Z,30.34
2022-08-07T13:28:10.678Z,30.47
2022-08-07T13:30:40.045Z,30.08
2022-08-07T13:34:34.251Z,29.22
2022-08-07T13:36:55.293Z,30.37
2022-08-07T13:40:36.736Z,30.44
2022-08-07T13:42:39.851Z,30.14
2022-08-07T13:46:06.390Z,30.15
2022-08-07T13:48:08.202Z,29.93
2022-08-07T13:50:44.972Z,30.27
2022-08-07T13:53:55.245Z,29.94
2022-08-07T13:56:36.202Z,30.73
2022-08-07T13:59:31.609Z,29.20
2022-08-07T14:02:10.694Z,29.04
2022-08-07T14:04:50.076Z,28.33
2022-08-07T14:08:01.022Z,28.20
2022-08-07T14:10:42.376Z,28.95
2022-08-07T14:13:16.099Z,29.04
2022-08-07T14:15:50.801Z,29.94
2022-08-07T14:18:57.206Z,29.27
2022-08-07T14:22:01.187Z,29.38
2022-08-07T14:24:28.160Z,28.05
2022-08-07T14:27:16.214Z,28.49
2022-08-07T14:30:09.489Z,29.20
2022-08-07T14:32:57.871Z,29.46
2022-08-07T14:35:44.914Z,29.66
2022-08-07T14:38:30.195Z,28.89
2022-08-07T14:41:02.210Z,28.76
2022-08-07T14:43:58.551Z,28.69
2022-08-07T14:46:31.254Z,28.18
2022-08-07T14:52:05.083Z,27.81
2022-08-07T14:54:42.093Z,27.84
2022-08-07T15:02:56.767Z,28.41
2022-08-07T15:05:25.492Z,28.63
2022-08-07T15:07:53.377Z,28.86
2022-08-07T15:10:26.386Z,28.71
2022-08-07T15:13:18.830Z,28.41
2022-08-07T15:15:52.635Z,28.14
2022-08-07T15:18:28.498Z,28.42
2022-08-07T15:21:08.389Z,28.91
2022-08-07T15:26:47.928Z,28.37
2022-08-07T15:32:06.328Z,29.41
2022-08-07T15:34:57.005Z,28.34
2022-08-07T15:38:17.995Z,28.39
2022-08-07T15:40:34.633Z,28.77
2022-08-07T15:43:33.547Z,29.28
2022-08-07T15:46:32.141Z,29.54
2022-08-07T15:54:48.313Z,29.22
2022-08-07T15:57:28.100Z,29.80
2022-08-07T16:00:08.023Z,30.34
2022-08-07T16:02:46.979Z,29.50
2022-08-07T16:05:20.091Z,29.43
2022-08-07T16:08:31.125Z,29.71
2022-08-07T16:10:43.308Z,29.52
2022-08-07T16:13:59.184Z,30.12
2022-08-07T16:16:49.165Z,29.40
2022-08-07T16:19:59.256Z,30.16
2022-08-07T16:22:33.874Z,31.51
2022-08-07T16:25:23.273Z,30.12
2022-08-07T16:30:06.877Z,30.36
2022-08-07T16:31:50.934Z,29.18
2022-08-07T16:34:33.973Z,29.62
2022-08-07T16:38:04.536Z,30.40
2022-08-07T16:41:02.168Z,30.69
2022-08-07T16:44:03.997Z,30.05
2022-08-07T16:47:15.815Z,31.04
2022-08-07T16:50:28.056Z,30.42
2022-08-07T16:54:02.072Z,30.70
2022-08-07T16:56:56.058Z,30.62
2022-08-07T16:59:51.159Z,30.87
2022-08-07T17:02:53.432Z,30.40
2022-08-07T17:06:28.471Z,31.03
2022-08-07T17:09:13.967Z,31.23
2022-08-07T17:12:03.845Z,31.54
2022-08-07T17:14:59.933Z,31.79
2022-08-07T17:17:48.196Z,31.41
2022-08-07T17:20:41.836Z,31.72
2022-08-07T17:23:32.324Z,31.86
2022-08-07T17:26:35.826Z,31.68
2022-08-07T17:30:16.159Z,31.83
2022-08-07T17:32:30.646Z,31.77
2022-08-07T17:35:50.539Z,31.71
2022-08-07T17:38:33.094Z,32.21
2022-08-07T17:42:04.955Z,32.57
2022-08-07T17:44:51.539Z,32.53
2022-08-07T17:47:59.273Z,32.98
2022-08-07T17:50:47.191Z,32.82
2022-08-07T17:54:01.553Z,33.32
2022-08-07T17:56:29.213Z,32.77
2022-08-07T17:58:56.762Z,32.64
2022-08-07T18:01:37.203Z,32.50
2022-08-07T18:04:31.031Z,33.55
2022-08-07T18:07:20.160Z,33.46
2022-08-07T18:10:06.014Z,34.02
2022-08-07T18:13:16.681Z,34.51
2022-08-07T18:16:05.027Z,34.90
2022-08-07T18:21:02.595Z,34.76
2022-08-07T18:21:53.529Z,34.87
2022-08-07T18:24:34.186Z,35.08
2022-08-07T18:27:07.110Z,35.45
2022-08-07T18:30:07.622Z,35.91
2022-08-07T18:33:10.868Z,35.94
2022-08-07T18:35:51.984Z,35.93
2022-08-07T18:38:58.251Z,36.41
2022-08-07T18:42:04.205Z,36.70
2022-08-07T18:45:40.338Z,37.13
2022-08-07T18:48:00.976Z,37.75
2022-08-07T18:50:40.822Z,37.75
2022-08-07T18:53:39.276Z,38.27
2022-08-07T18:56:31.720Z,39.51
2022-08-07T18:59:47.060Z,40.40
2022-08-07T19:02:43.826Z,41.23
2022-08-07T19:06:02.202Z,41.89
2022-08-07T19:08:27.472Z,42.84
2022-08-07T19:11:34.994Z,43.27
2022-08-07T19:14:11.466Z,43.97
2022-08-07T19:17:04.535Z,44.27
2022-08-07T19:19:58.524Z,44.56
2022-08-07T19:22:48.574Z,45.18
2022-08-07T19:26:24.369Z,45.57
2022-08-07T19:28:57.948Z,45.61
2022-08-07T19:31:42.893Z,46.01
2022-08-07T19:33:58.801Z,46.18
